Latest Weather Observations for Hobart Airport

IDT60801

Issued at 3:02 pm EST Tuesday 30 May 2017 (issued every 30 minutes, with the page automatically refreshed every 10 minutes)

About weather observations | Map of weather stations | Latest weather observations for TAS | Other Formats
Station Details ID: 094008 Name: HOBART AIRPORT Lat: -42.83 Lon: 147.50 Height: 4.0 m
Data from the previous 72 hours. | See also: Recent months at Hobart Airport
Date/Time
EST
Temp
°C
App
Temp
°C
Dew
Point
°C
Rel
Hum
%
Delta-T
°C
Wind Press
QNH
hPa
Press
MSL
hPa
Rain since
9am
mm
Dir  Spd
km/h
Gust
km/h
Spd
kts
Gust
kts
30/02:30pm 7.6 0.9 3.4 75 1.8 WSW 28 39 15 21 1017.7 1017.7 7.4
30/02:00pm 7.2 2.3 3.9 79 1.4 WSW 19 24 10 13 1016.9 1016.9 7.4
30/01:46pm 6.8 2.3 4.2 83 1.1 W 17 28 9 15 1016.8 1016.8 7.4
30/01:30pm 6.9 0.6 3.9 81 1.3 SW 26 37 14 20 1017.1 1017.1 6.4
30/01:13pm 6.9 1.0 3.9 81 1.3 WSW 24 37 13 20 1016.5 1016.5 5.4
30/01:00pm 6.8 -0.3 3.7 80 1.3 WSW 30 46 16 25 1016.2 1016.2 4.8
30/12:38pm 7.0 0.7 3.7 79 1.4 SW 26 41 14 22 1015.9 1015.9 4.2
30/12:30pm 7.2 1.3 3.9 79 1.4 SW 24 32 13 17 1016.1 1016.1 3.6
30/12:29pm 7.3 1.4 4.0 79 1.4 SW 24 32 13 17 1016.1 1016.1 3.4
30/12:00pm 7.6 0.2 3.9 77 1.6 SW 32 41 17 22 1015.4 1015.4 3.2
30/11:30am 7.7 2.6 4.0 77 1.6 SW 20 37 11 20 1014.9 1014.9 2.2
30/11:00am 7.7 1.6 4.7 81 1.3 SW 26 37 14 20 1014.6 1014.6 1.4
30/10:30am 8.4 3.4 4.8 78 1.6 SW 20 30 11 16 1013.9 1013.9 0.6
30/10:00am 8.6 3.6 4.8 77 1.7 WSW 20 35 11 19 1013.0 1013.0 0.2
30/09:30am 8.5 3.1 4.4 75 1.8 WSW 22 32 12 17 1012.5 1012.5 0.2
30/09:00am 8.5 2.8 4.9 78 1.6 SW 24 33 13 18 1011.9 1011.9 3.6
30/08:30am 8.5 3.6 5.2 80 1.5 SW 20 33 11 18 1011.2 1011.2 3.2
30/08:00am 8.4 4.2 5.8 84 1.2 SW 17 24 9 13 1010.9 1010.9 3.2
30/07:30am 8.3 2.4 5.6 83 1.2 SSW 26 37 14 20 1009.8 1009.8 3.0
30/07:00am 8.6 2.5 6.4 86 1.0 SSW 28 46 15 25 1009.3 1009.3 2.2
30/06:48am 8.7 2.6 6.8 88 0.9 SSW 28 52 15 28 1009.3 1009.3 2.0
30/06:30am 8.6 3.4 7.3 91 0.6 SSW 24 35 13 19 1008.9 1008.9 1.2
30/06:21am 8.5 2.4 6.6 88 0.9 SSW 28 33 15 18 1008.8 1008.8 0.6
30/06:00am 8.3 5.1 5.2 81 1.4 NW 11 15 6 8 1007.7 1007.7 0.0
30/05:30am 9.4 6.2 5.0 74 2.0 NW 11 15 6 8 1007.3 1007.3 0.0
30/05:00am 9.0 5.7 4.7 74 1.9 WNW 11 13 6 7 1007.2 1007.2 0.0
30/04:30am 8.5 5.8 5.4 81 1.4 NW 9 13 5 7 1006.9 1006.9 0.0
30/04:00am 8.7 5.8 4.9 77 1.7 NNW 9 11 5 6 1007.2 1007.2 0.0
30/03:30am 8.3 5.4 4.9 79 1.5 NNW 9 11 5 6 1007.7 1007.7 0.0
30/03:00am 8.4 5.1 4.6 77 1.7 NNW 11 17 6 9 1008.1 1008.1 0.0
30/02:30am 9.0 5.2 4.0 71 2.2 NNW 13 20 7 11 1008.5 1008.5 0.0
30/02:00am 9.3 5.4 3.6 67 2.5 N 13 19 7 10 1008.9 1008.9 0.0
30/01:30am 9.3 4.6 3.3 66 2.6 NNW 17 22 9 12 1009.4 1009.4 0.0
30/01:00am 9.1 5.5 2.8 64 2.7 NNW 11 15 6 8 1009.6 1009.6 0.0
30/12:30am 9.4 5.6 2.0 60 3.1 NNW 11 17 6 9 1010.1 1010.1 0.0
30/12:00am 9.2 4.3 1.8 60 3.1 NNW 17 24 9 13 1010.4 1010.4 0.0
 
Date/Time
EST
Temp
°C
App
Temp
°C
Dew
Point
°C
Rel
Hum
%
Delta-T
°C
Wind Press
QNH
hPa
Press
MSL
hPa
Rain since
9am
mm
Dir  Spd
km/h
Gust
km/h
Spd
kts
Gust
kts
29/11:30pm 9.6 5.4 1.4 56 3.4 NNW 13 20 7 11 1010.6 1010.6 0.0
29/11:00pm 8.9 3.4 1.7 60 3.0 N 20 28 11 15 1010.9 1010.9 0.0
29/10:30pm 8.9 4.4 1.9 61 2.9 N 15 22 8 12 1011.4 1011.4 0.0
29/10:00pm 8.9 4.7 1.9 61 2.9 N 13 17 7 9 1011.7 1011.7 0.0
29/09:30pm 8.7 3.8 1.7 61 2.9 N 17 22 9 12 1012.2 1012.2 0.0
29/09:00pm 8.3 4.5 1.5 62 2.8 N 11 17 6 9 1012.4 1012.4 0.0
29/08:30pm 8.0 4.0 3.0 71 2.1 N 13 20 7 11 1012.5 1012.5 0.0
29/08:00pm 8.5 4.1 2.8 67 2.4 NNW 15 24 8 13 1012.5 1012.5 0.0
29/07:30pm 8.4 4.3 2.4 66 2.5 NNW 13 17 7 9 1012.6 1012.6 0.0
29/07:00pm 9.0 4.9 2.1 62 2.9 NNW 13 17 7 9 1012.5 1012.5 0.0
29/06:30pm 8.8 4.8 2.9 66 2.5 NNW 13 17 7 9 1012.5 1012.5 0.0
29/06:00pm 8.2 4.2 3.0 70 2.2 N 13 17 7 9 1012.6 1012.6 0.0
29/05:30pm 8.3 5.3 3.9 74 1.9 N 9 11 5 6 1012.5 1012.5 0.0
29/05:00pm 10.0 6.7 2.2 58 3.3 NW 9 13 5 7 1012.5 1012.5 0.0
29/04:30pm 10.2 5.5 3.0 61 3.1 NW 17 26 9 14 1012.5 1012.5 0.0
29/04:00pm 10.4 6.5 3.6 63 3.0 NNW 13 15 7 8 1012.2 1012.2 0.0
29/03:30pm 10.7 4.8 2.0 55 3.7 NW 22 30 12 16 1011.9 1011.9 0.0
29/03:00pm 10.9 4.6 1.4 52 4.0 NW 24 32 13 17 1011.8 1011.8 0.0
29/02:30pm 11.2 4.6 1.8 52 4.0 NW 26 33 14 18 1011.8 1011.8 0.0
29/02:00pm 11.4 5.0 1.1 49 4.3 WNW 24 35 13 19 1011.5 1011.5 0.0
29/01:30pm 11.7 4.7 1.9 51 4.2 WNW 28 35 15 19 1011.5 1011.5 0.0
29/01:00pm 11.9 6.6 3.0 54 3.9 WNW 20 30 11 16 1011.5 1011.5 0.0
29/12:30pm 11.9 6.8 3.3 55 3.8 NW 19 28 10 15 1011.4 1011.4 0.0
29/12:00pm 12.4 6.5 4.0 56 3.8 WNW 24 30 13 16 1011.5 1011.5 0.0
29/11:30am 11.1 5.1 3.6 60 3.3 NW 24 32 13 17 1011.5 1011.5 0.0
29/11:00am 11.6 6.2 4.3 61 3.3 NW 22 30 12 16 1011.7 1011.7 0.0
29/10:30am 10.6 5.1 3.8 63 3.0 NW 22 30 12 16 1011.8 1011.8 0.0
29/10:00am 10.2 4.6 3.3 62 3.0 NW 22 30 12 16 1011.5 1011.5 0.0
29/09:30am 9.3 5.5 3.8 68 2.4 N 13 19 7 10 1011.4 1011.4 0.0
29/09:00am 7.9 4.0 3.5 74 1.9 NNW 13 20 7 11 1011.3 1011.3 0.8
29/08:30am 6.8 2.3 2.4 73 1.8 NW 15 19 8 10 1010.8 1010.8 0.8
29/08:00am 6.3 1.5 2.4 76 1.6 NW 17 24 9 13 1010.6 1010.6 0.8
29/07:30am 5.5 2.5 2.0 78 1.4 NW 7 9 4 5 1010.2 1010.2 0.8
29/07:00am 6.4 2.7 2.3 75 1.7 NW 11 15 6 8 1009.9 1009.9 0.8
29/06:30am 6.5 2.5 2.6 76 1.6 NNW 13 17 7 9 1009.4 1009.4 0.8
29/06:00am 6.7 2.3 2.6 75 1.7 NNW 15 19 8 10 1009.0 1009.0 0.8
29/05:30am 7.1 3.0 2.5 72 1.9 NW 13 17 7 9 1008.6 1008.6 0.8
29/05:00am 7.6 2.7 2.3 69 2.2 NW 17 24 9 13 1008.3 1008.3 0.8
29/04:30am 7.3 2.1 2.2 70 2.1 NNW 19 26 10 14 1008.0 1008.0 0.8
29/04:00am 7.2 2.4 2.4 71 2.0 NNW 17 24 9 13 1007.7 1007.7 0.8
29/03:30am 7.8 3.3 2.0 67 2.4 NNW 15 20 8 11 1007.6 1007.6 0.8
29/03:00am 7.7 2.9 2.4 69 2.2 NW 17 26 9 14 1007.3 1007.3 0.8
29/02:30am 7.8 2.9 2.3 68 2.3 NNW 17 26 9 14 1007.1 1007.1 0.8
29/02:00am 8.0 2.2 2.2 67 2.4 NW 22 28 12 15 1007.0 1007.0 0.8
29/01:30am 7.9 2.1 2.4 68 2.3 NW 22 30 12 16 1006.7 1006.7 0.8
29/01:00am 7.6 3.2 2.6 70 2.1 NW 15 19 8 10 1006.7 1006.7 0.8
29/12:30am 7.1 3.1 2.8 74 1.8 WNW 13 15 7 8 1006.6 1006.6 0.8
29/12:00am 7.1 3.3 2.0 70 2.1 NW 11 17 6 9 1006.6 1006.6 0.8
 
Date/Time
EST
Temp
°C
App
Temp
°C
Dew
Point
°C
Rel
Hum
%
Delta-T
°C
Wind Press
QNH
hPa
Press
MSL
hPa
Rain since
9am
mm
Dir  Spd
km/h
Gust
km/h
Spd
kts
Gust
kts
28/11:30pm 7.4 2.1 2.1 69 2.2 WNW 19 24 10 13 1006.4 1006.4 0.8
28/11:00pm 4.5 2.3 3.5 93 0.4 NNE 4 7 2 4 1006.1 1006.1 0.8
28/10:30pm 3.8 2.2 2.6 92 0.5 CALM 0 0 0 0 1005.9 1005.9 0.8
28/10:00pm 4.3 2.8 3.1 92 0.5 CALM 0 0 0 0 1005.9 1005.9 0.8
28/09:30pm 7.1 4.6 3.6 78 1.5 W 6 7 3 4 1005.8 1005.8 0.8
28/09:00pm 5.4 3.9 3.2 86 0.9 CALM 0 0 0 0 1005.5 1005.5 0.8
28/08:30pm 6.4 4.1 4.6 88 0.8 N 6 9 3 5 1005.2 1005.2 0.8
28/08:00pm 8.1 5.5 4.2 76 1.7 WNW 7 9 4 5 1004.7 1004.7 0.8
28/07:30pm 8.7 7.1 4.7 76 1.8 WSW 2 7 1 4 1004.5 1004.5 0.8
28/07:00pm 8.5 6.8 5.9 84 1.2 NNW 4 7 2 4 1004.0 1004.0 0.8
28/06:30pm 9.0 6.6 6.9 87 1.0 SSE 9 17 5 9 1003.4 1003.4 0.8
28/06:00pm 10.0 6.1 7.3 83 1.3 SSW 17 26 9 14 1003.0 1003.0 0.8
28/05:30pm 10.2 7.9 7.5 83 1.3 SSW 9 13 5 7 1002.5 1002.5 0.8
28/05:00pm 9.9 7.8 8.3 90 0.8 S 9 13 5 7 1002.2 1002.2 0.8
28/04:30pm 10.4 5.4 8.2 86 1.1 S 24 33 13 18 1001.7 1001.7 0.4
28/04:00pm 12.3 9.4 6.7 68 2.7 WSW 11 13 6 7 1001.3 1001.3 0.0
28/03:30pm 12.5 9.5 6.0 64 3.1 WSW 11 15 6 8 1000.7 1000.7 0.0
28/03:00pm 12.4 9.5 6.6 68 2.8 NW 11 13 6 7 1000.6 1000.6 0.0
28/02:30pm 12.2 8.6 6.8 69 2.6 NW 15 19 8 10 1000.2 1000.2 0.0
28/02:00pm 11.9 8.8 7.2 73 2.3 NW 13 19 7 10 1000.1 1000.1 0.0
28/01:30pm 11.8 8.6 6.8 71 2.4 NNW 13 19 7 10 1000.1 1000.1 0.0
28/01:00pm 11.7 8.6 7.4 75 2.1 NNW 13 19 7 10 1000.2 1000.2 0.0
28/12:30pm 11.3 8.3 7.6 78 1.8 NNW 13 17 7 9 1000.0 1000.0 0.0
28/12:00pm 11.2 8.2 7.9 80 1.6 NW 13 19 7 10 1000.2 1000.2 0.0
28/11:30am 11.1 7.8 8.0 81 1.5 NNW 15 24 8 13 1000.4 1000.4 0.0
28/11:00am 11.0 7.7 7.9 81 1.5 NW 15 19 8 10 1000.6 1000.6 0.0
28/10:30am 10.9 6.8 7.8 81 1.5 NW 19 24 10 13 1000.7 1000.7 0.0
28/10:00am 10.6 7.3 8.2 85 1.2 NW 15 17 8 9 1000.5 1000.5 0.0
28/09:30am 10.6 7.6 7.9 83 1.3 NW 13 17 7 9 1000.5 1000.5 0.0
28/09:00am 10.4 7.1 7.9 84 1.2 NNW 15 19 8 10 1000.7 1000.7 3.4
28/08:30am 10.1 6.8 8.0 87 1.0 NNW 15 19 8 10 1000.4 1000.4 3.4
28/08:00am 9.9 7.0 8.3 90 0.8 N 13 17 7 9 1000.5 1000.5 3.4
28/07:30am 10.1 7.2 8.3 88 0.9 NNW 13 17 7 9 1000.5 1000.5 3.0
28/07:00am 9.8 7.3 8.4 91 0.7 NW 11 15 6 8 1000.2 1000.2 2.8
28/06:30am 10.8 7.9 8.2 84 1.3 NW 13 17 7 9 1000.0 1000.0 2.8
28/06:00am 9.3 7.6 8.5 95 0.4 WNW 7 9 4 5 999.9 999.9 2.8
28/05:30am 10.0 7.5 8.4 90 0.8 NW 11 13 6 7 999.8 999.8 2.8
28/05:00am 10.1 8.6 8.5 90 0.8 WNW 6 9 3 5 1000.1 1000.1 2.8
28/04:30am 10.3 9.3 8.7 90 0.8 NW 4 7 2 4 1000.1 1000.1 2.8
28/04:00am 10.6 8.9 8.4 86 1.1 NW 7 9 4 5 1000.3 1000.3 2.8
28/03:30am 10.2 8.7 8.6 90 0.8 NW 6 9 3 5 1000.7 1000.7 2.8
28/03:00am 10.1 8.1 8.7 91 0.7 NNE 9 11 5 6 1001.1 1001.1 2.6
28/02:30am 10.3 8.4 8.9 91 0.7 NNE 9 13 5 7 1001.6 1001.6 2.6
28/02:00am 11.3 8.1 9.9 91 0.7 NW 17 28 9 15 1002.3 1002.3 2.2
28/01:30am 11.7 9.0 10.5 92 0.6 WNW 15 19 8 10 1002.3 1002.3 1.8
28/01:00am 11.8 9.2 10.8 94 0.5 W 15 20 8 11 1002.6 1002.6 1.8
28/12:30am 12.3 10.9 10.8 90 0.8 NNW 9 13 5 7 1002.7 1002.7 1.6
28/12:00am 12.8 10.3 10.9 88 1.0 N 15 24 8 13 1003.5 1003.5 1.2
 
Date/Time
EST
Temp
°C
App
Temp
°C
Dew
Point
°C
Rel
Hum
%
Delta-T
°C
Wind Press
QNH
hPa
Press
MSL
hPa
Rain since
9am
mm
Dir  Spd
km/h
Gust
km/h
Spd
kts
Gust
kts
27/11:30pm 13.2 10.1 10.3 82 1.5 NNW 17 22 9 12 1003.7 1003.7 0.0
27/11:00pm 14.7 10.3 8.8 68 3.0 N 22 39 12 21 1003.7 1003.7 0.0
27/10:30pm 14.5 10.9 8.4 67 3.1 N 17 26 9 14 1003.8 1003.8 0.0
27/10:00pm 13.1 9.7 9.0 76 2.1 N 17 28 9 15 1004.1 1004.1 0.0
27/09:30pm 13.2 9.1 8.8 74 2.2 N 20 30 11 16 1004.4 1004.4 0.0
27/09:00pm 14.4 10.5 8.5 67 3.0 N 19 30 10 16 1004.5 1004.5 0.0
27/08:30pm 14.9 10.3 8.2 64 3.4 N 22 30 12 16 1004.8 1004.8 0.0
27/08:00pm 14.7 10.3 8.8 68 3.0 N 22 32 12 17 1005.0 1005.0 0.0
27/07:30pm 15.0 10.2 9.0 67 3.1 N 24 33 13 18 1005.3 1005.3 0.0
27/07:00pm 15.0 9.8 8.7 66 3.2 N 26 35 14 19 1005.4 1005.4 0.0
27/06:30pm 15.0 10.2 8.7 66 3.2 N 24 33 13 18 1005.6 1005.6 0.0
27/06:00pm 15.4 10.9 8.5 63 3.5 N 22 30 12 16 1005.6 1005.6 0.0
27/05:30pm 15.3 10.4 8.6 64 3.4 N 24 35 13 19 1005.7 1005.7 0.0
27/05:00pm 15.8 10.4 7.9 59 4.0 N 26 35 14 19 1005.8 1005.8 0.0
27/04:30pm 16.2 10.2 7.2 55 4.5 N 28 39 15 21 1005.8 1005.8 0.0
27/04:00pm 16.9 11.2 6.6 50 5.1 N 26 35 14 19 1006.0 1006.0 0.0
27/03:30pm 17.5 11.9 5.3 44 5.9 NNW 24 35 13 19 1006.0 1006.0 0.0

Other Formats:

Comma delimited format used in spreadsheet applications
http://www.bom.gov.au/fwo/IDT60801/IDT60801.94975.axf

JavaScript Object Notation format (JSON) in row-major order
http://www.bom.gov.au/fwo/IDT60801/IDT60801.94975.json